createdAt,value
2023-02-26T00:00:13.169Z,0.20
2023-02-26T00:02:48.913Z,0.29
2023-02-26T00:05:22.026Z,0.34
2023-02-26T00:07:56.416Z,0.24
2023-02-26T00:10:29.542Z,0.24
2023-02-26T00:13:03.232Z,0.24
2023-02-26T00:15:36.957Z,0.41
2023-02-26T00:18:16.200Z,0.43
2023-02-26T00:20:49.991Z,0.37
2023-02-26T00:23:25.132Z,0.40
2023-02-26T00:25:59.627Z,0.29
2023-02-26T00:28:33.300Z,0.29
2023-02-26T00:31:07.357Z,0.33
2023-02-26T00:33:41.787Z,0.34
2023-02-26T00:36:24.250Z,0.37
2023-02-26T00:39:17.229Z,0.33
2023-02-26T00:41:50.988Z,0.38
2023-02-26T00:44:24.795Z,0.38
2023-02-26T00:47:03.163Z,0.38
2023-02-26T00:49:53.530Z,0.39
2023-02-26T00:52:36.628Z,0.36
2023-02-26T00:55:11.210Z,0.40
2023-02-26T00:57:44.174Z,0.38
2023-02-26T01:00:18.916Z,0.35
2023-02-26T01:02:52.618Z,0.35
2023-02-26T01:05:26.763Z,0.33
2023-02-26T01:08:06.176Z,0.30
2023-02-26T01:10:42.264Z,0.24
2023-02-26T01:13:15.973Z,0.25
2023-02-26T01:15:54.196Z,0.22
2023-02-26T01:18:34.609Z,0.22
2023-02-26T01:21:15.832Z,0.22
2023-02-26T01:23:52.582Z,0.17
2023-02-26T01:26:30.170Z,0.08
2023-02-26T01:29:03.711Z,-0.04
2023-02-26T01:31:44.368Z,0.01
2023-02-26T01:34:24.240Z,-0.04
2023-02-26T01:37:04.234Z,-0.03
2023-02-26T01:39:45.067Z,-0.05
2023-02-26T01:42:23.048Z,-0.06
2023-02-26T01:45:01.839Z,-0.08
2023-02-26T01:47:42.207Z,-0.10
2023-02-26T01:50:19.278Z,-0.10
2023-02-26T01:53:24.572Z,-0.14
2023-02-26T01:56:01.717Z,-0.18
2023-02-26T01:58:37.881Z,-0.20
2023-02-26T02:01:11.127Z,-0.22
2023-02-26T02:03:46.206Z,-0.25
2023-02-26T02:06:22.927Z,-0.27
2023-02-26T02:08:56.748Z,-0.31
2023-02-26T02:11:29.867Z,-0.38
2023-02-26T02:14:13.526Z,-0.39
2023-02-26T02:16:56.040Z,-0.44
2023-02-26T02:20:14.076Z,-0.55
2023-02-26T02:23:09.467Z,-0.60
2023-02-26T02:26:27.664Z,-0.67
2023-02-26T02:29:52.824Z,-0.73
2023-02-26T02:32:32.405Z,-0.88
2023-02-26T02:35:14.071Z,-0.92
2023-02-26T02:37:53.879Z,-0.87
2023-02-26T02:40:31.124Z,-0.86
2023-02-26T02:43:08.410Z,-0.88
2023-02-26T02:45:46.798Z,-0.89
2023-02-26T02:48:26.121Z,-0.91
2023-02-26T02:51:02.925Z,-0.87
2023-02-26T02:53:39.125Z,-0.89
2023-02-26T02:56:18.452Z,-0.94
2023-02-26T02:58:56.301Z,-1.03
2023-02-26T03:01:30.284Z,-1.08
2023-02-26T03:04:09.247Z,-1.13
2023-02-26T03:06:43.466Z,-1.13
2023-02-26T03:09:17.101Z,-1.20
2023-02-26T03:11:50.105Z,-1.21
2023-02-26T03:14:23.367Z,-1.37
2023-02-26T03:17:21.355Z,-1.30
2023-02-26T03:20:10.631Z,-1.32
2023-02-26T03:22:54.577Z,-1.28
2023-02-26T03:25:32.393Z,-1.23
2023-02-26T03:28:15.775Z,-1.23
2023-02-26T03:30:56.924Z,-1.17
2023-02-26T03:33:38.466Z,-1.25
2023-02-26T03:36:20.434Z,-1.28
2023-02-26T03:38:58.396Z,-1.36
2023-02-26T03:41:37.623Z,-1.40
2023-02-26T03:44:15.496Z,-1.45
2023-02-26T03:46:55.011Z,-1.54
2023-02-26T03:49:33.002Z,-1.52
2023-02-26T03:52:08.085Z,-1.48
2023-02-26T03:54:47.980Z,-1.38
2023-02-26T03:57:20.963Z,-1.34
2023-02-26T03:59:54.515Z,-1.43
2023-02-26T04:02:33.084Z,-1.40
2023-02-26T04:05:12.702Z,-1.43
2023-02-26T04:07:49.524Z,-1.52
2023-02-26T04:10:33.107Z,-1.64
2023-02-26T04:13:06.111Z,-1.64
2023-02-26T04:15:39.629Z,-1.67
2023-02-26T04:18:12.611Z,-1.67
2023-02-26T04:20:45.603Z,-1.68
2023-02-26T04:23:20.131Z,-1.77
2023-02-26T04:25:53.399Z,-1.88
2023-02-26T04:28:26.496Z,-1.88
2023-02-26T04:30:59.488Z,-1.83
2023-02-26T04:33:33.261Z,-1.88
2023-02-26T04:36:07.035Z,-1.88
2023-02-26T04:38:41.407Z,-1.99
2023-02-26T04:41:14.472Z,-2.18
2023-02-26T04:43:47.477Z,-2.16
2023-02-26T04:46:20.631Z,-2.16
2023-02-26T04:48:53.836Z,-2.14
2023-02-26T04:51:27.096Z,-2.11
2023-02-26T04:54:01.479Z,-2.07
2023-02-26T04:56:34.510Z,-2.04
2023-02-26T04:59:07.761Z,-2.00
2023-02-26T05:01:40.861Z,-2.09
2023-02-26T05:04:14.049Z,-2.22
2023-02-26T05:06:47.056Z,-2.27
2023-02-26T05:09:21.874Z,-2.29
2023-02-26T05:11:54.939Z,-2.37
2023-02-26T05:14:27.926Z,-2.41
2023-02-26T05:17:00.920Z,-2.41
2023-02-26T05:19:34.292Z,-2.42
2023-02-26T05:22:07.274Z,-2.60
2023-02-26T05:24:42.205Z,-2.79
2023-02-26T05:27:15.912Z,-2.68
2023-02-26T05:29:48.981Z,-2.66
2023-02-26T05:32:22.045Z,-2.66
2023-02-26T05:34:55.024Z,-2.60
2023-02-26T05:37:28.059Z,-2.51
2023-02-26T05:40:02.362Z,-2.52
2023-02-26T05:42:35.369Z,-2.55
2023-02-26T05:45:10.187Z,-2.56
2023-02-26T05:47:43.281Z,-2.50
2023-02-26T05:50:16.769Z,-2.46
2023-02-26T05:52:49.887Z,-2.40
2023-02-26T05:55:24.783Z,-2.35
2023-02-26T05:57:57.783Z,-2.19
2023-02-26T06:00:30.950Z,-2.19
2023-02-26T06:03:04.189Z,-2.15
2023-02-26T06:05:37.359Z,-2.12
2023-02-26T06:08:12.119Z,-2.06
2023-02-26T06:10:46.474Z,-2.05
2023-02-26T06:13:20.075Z,-2.10
2023-02-26T06:15:53.712Z,-2.16
2023-02-26T06:18:27.333Z,-2.15
2023-02-26T06:21:00.416Z,-2.09
2023-02-26T06:23:33.467Z,-2.07
2023-02-26T06:26:08.038Z,-2.08
2023-02-26T06:28:41.699Z,-2.04
2023-02-26T06:31:14.742Z,-1.98
2023-02-26T06:33:47.917Z,-1.87
2023-02-26T06:36:20.977Z,-1.84
2023-02-26T06:38:54.047Z,-1.81
2023-02-26T06:41:28.451Z,-1.74
2023-02-26T06:44:01.466Z,-1.74
2023-02-26T06:46:34.598Z,-1.77
2023-02-26T06:49:07.774Z,-1.64
2023-02-26T06:51:40.780Z,-1.63
2023-02-26T06:54:14.112Z,-1.55
2023-02-26T06:56:48.426Z,-1.45
2023-02-26T06:59:22.058Z,-1.37
2023-02-26T07:01:55.043Z,-1.12
2023-02-26T07:04:28.025Z,-1.15
2023-02-26T07:07:01.076Z,-1.09
2023-02-26T07:09:34.056Z,-1.15
2023-02-26T07:12:09.131Z,-1.12
2023-02-26T07:14:43.046Z,-1.06
2023-02-26T07:17:20.438Z,-1.03
2023-02-26T07:19:54.236Z,-0.94
2023-02-26T07:22:27.288Z,-0.86
2023-02-26T07:25:01.058Z,-0.98
2023-02-26T07:27:35.466Z,-0.95
2023-02-26T07:30:10.769Z,-0.95
2023-02-26T07:32:43.900Z,-0.79
2023-02-26T07:35:17.154Z,-0.73
2023-02-26T07:37:50.155Z,-0.67
2023-02-26T07:40:23.176Z,-0.71
2023-02-26T07:42:57.524Z,-0.70
2023-02-26T07:45:30.506Z,-0.71
2023-02-26T07:48:03.473Z,-0.76
2023-02-26T07:50:36.479Z,-0.65
2023-02-26T07:53:09.844Z,-0.47
2023-02-26T07:55:42.982Z,-0.32
2023-02-26T07:58:17.365Z,-0.19
2023-02-26T08:00:52.621Z,-0.09
2023-02-26T08:03:25.763Z,-0.08
2023-02-26T08:06:00.276Z,-0.03
2023-02-26T08:08:33.346Z,0.15
2023-02-26T08:11:06.405Z,0.26
2023-02-26T08:13:40.793Z,0.26
2023-02-26T08:16:13.883Z,0.28
2023-02-26T08:18:46.947Z,0.33
2023-02-26T08:21:19.933Z,0.33
2023-02-26T08:23:54.132Z,0.46
2023-02-26T08:26:27.816Z,0.53
2023-02-26T08:29:02.406Z,0.29
2023-02-26T08:31:36.065Z,0.43
2023-02-26T08:34:09.100Z,0.52
2023-02-26T08:36:42.204Z,0.69
2023-02-26T08:39:15.290Z,0.59
2023-02-26T08:41:48.267Z,0.61
2023-02-26T08:44:22.595Z,0.68
2023-02-26T08:46:56.388Z,0.68
2023-02-26T08:49:29.417Z,0.57
2023-02-26T08:52:02.441Z,0.58
2023-02-26T08:54:35.464Z,0.72
2023-02-26T08:57:08.418Z,0.62
2023-02-26T08:59:42.812Z,0.61
2023-02-26T09:02:16.310Z,0.63
2023-02-26T09:04:49.352Z,0.41
2023-02-26T09:07:22.376Z,0.19
2023-02-26T09:09:55.428Z,0.55
2023-02-26T09:12:28.496Z,0.54
2023-02-26T09:15:03.543Z,0.60
2023-02-26T09:17:37.449Z,0.80
2023-02-26T09:20:13.576Z,0.72
2023-02-26T09:22:46.651Z,0.96
2023-02-26T09:25:19.956Z,0.94
2023-02-26T09:27:52.994Z,0.87
2023-02-26T09:30:27.472Z,1.04
2023-02-26T09:33:00.699Z,1.12
2023-02-26T09:35:33.848Z,0.72
2023-02-26T09:38:06.867Z,0.76
2023-02-26T09:40:49.995Z,0.67
2023-02-26T09:43:55.272Z,0.51
2023-02-26T09:46:40.394Z,0.33
2023-02-26T09:49:23.524Z,0.39
2023-02-26T09:52:04.908Z,0.61
2023-02-26T09:54:48.484Z,0.61
2023-02-26T09:57:32.198Z,0.38
2023-02-26T10:00:22.047Z,0.53
2023-02-26T10:03:16.264Z,0.28
2023-02-26T10:06:14.397Z,0.55
2023-02-26T10:09:04.103Z,0.56
2023-02-26T10:11:46.420Z,0.54
2023-02-26T10:14:27.304Z,0.52
2023-02-26T10:17:08.306Z,0.57
2023-02-26T10:19:46.926Z,0.56
2023-02-26T10:22:31.244Z,0.56
2023-02-26T10:25:10.889Z,0.60
2023-02-26T10:27:58.699Z,0.55
2023-02-26T10:30:38.802Z,0.38
2023-02-26T10:33:22.068Z,0.73
2023-02-26T10:36:04.657Z,0.68
2023-02-26T10:38:38.054Z,0.90
2023-02-26T10:41:15.916Z,0.82
2023-02-26T10:43:53.622Z,0.58
2023-02-26T10:46:37.821Z,1.03
2023-02-26T10:49:36.861Z,1.04
2023-02-26T10:52:17.952Z,1.06
2023-02-26T10:55:26.192Z,0.90
2023-02-26T10:58:06.947Z,1.24
2023-02-26T11:00:42.038Z,1.20
2023-02-26T11:03:20.247Z,1.35
2023-02-26T11:05:53.321Z,1.26
2023-02-26T11:08:30.722Z,1.32
2023-02-26T11:11:06.327Z,1.55
2023-02-26T11:13:40.686Z,1.60
2023-02-26T11:16:18.524Z,1.61
2023-02-26T11:18:55.653Z,1.33
2023-02-26T11:21:32.493Z,1.09
2023-02-26T11:24:13.299Z,1.02
2023-02-26T11:26:50.156Z,1.14
2023-02-26T11:29:26.646Z,0.77
2023-02-26T11:32:02.532Z,0.84
2023-02-26T11:34:36.555Z,1.07
2023-02-26T11:37:09.597Z,0.85
2023-02-26T11:39:44.242Z,0.73
2023-02-26T11:42:19.067Z,1.09
2023-02-26T11:44:52.913Z,1.14
2023-02-26T11:47:30.996Z,1.08
2023-02-26T11:50:15.128Z,1.10
2023-02-26T11:52:56.529Z,0.98
2023-02-26T11:55:35.711Z,1.25
2023-02-26T11:58:22.947Z,1.12
2023-02-26T12:00:59.836Z,1.06
2023-02-26T12:03:40.081Z,1.24
2023-02-26T12:06:19.616Z,1.43
2023-02-26T12:08:54.066Z,1.25
2023-02-26T12:11:59.897Z,1.10
2023-02-26T12:14:50.189Z,1.07
2023-02-26T12:17:37.938Z,1.49
2023-02-26T12:20:22.727Z,1.67
2023-02-26T12:23:16.317Z,1.78
2023-02-26T12:26:17.128Z,1.75
2023-02-26T12:29:06.173Z,1.70
2023-02-26T12:32:11.530Z,1.71
2023-02-26T12:35:32.228Z,1.84
2023-02-26T12:38:19.686Z,2.04
2023-02-26T12:41:21.398Z,2.23
2023-02-26T12:43:57.913Z,2.00
2023-02-26T12:46:55.118Z,1.93
2023-02-26T12:49:55.226Z,1.86
2023-02-26T12:53:05.201Z,1.66
2023-02-26T12:55:52.705Z,1.87
2023-02-26T12:58:45.372Z,1.73
2023-02-26T13:01:36.567Z,1.72
2023-02-26T13:04:42.390Z,1.62
2023-02-26T13:07:54.500Z,1.76
2023-02-26T13:10:42.228Z,1.98
2023-02-26T13:13:35.164Z,2.20
2023-02-26T13:16:31.266Z,2.33
2023-02-26T13:19:14.999Z,2.45
2023-02-26T13:21:54.042Z,2.53
2023-02-26T13:24:35.902Z,2.65
2023-02-26T13:27:10.975Z,2.83
2023-02-26T13:29:50.729Z,2.47
2023-02-26T13:32:28.114Z,2.43
2023-02-26T13:35:06.671Z,2.51
2023-02-26T13:37:42.658Z,2.61
2023-02-26T13:40:40.691Z,2.16
2023-02-26T13:43:30.876Z,2.31
2023-02-26T13:46:21.206Z,2.32
2023-02-26T13:49:04.640Z,2.06
2023-02-26T13:51:41.604Z,2.47
2023-02-26T13:54:45.795Z,2.58
2023-02-26T13:57:36.856Z,2.43
2023-02-26T14:00:26.750Z,2.32
2023-02-26T14:03:12.038Z,2.56
2023-02-26T14:06:26.532Z,2.67
2023-02-26T14:09:06.318Z,2.61
2023-02-26T14:12:01.217Z,2.60
2023-02-26T14:14:40.915Z,2.29
2023-02-26T14:17:44.024Z,2.53
2023-02-26T14:20:27.281Z,2.44
2023-02-26T14:23:21.304Z,2.73
2023-02-26T14:25:54.998Z,2.89
2023-02-26T14:28:43.855Z,2.89
2023-02-26T14:31:22.300Z,3.00
2023-02-26T14:34:15.617Z,3.09
2023-02-26T14:36:53.188Z,3.06
2023-02-26T14:39:37.816Z,2.62
2023-02-26T14:42:15.886Z,1.95
2023-02-26T14:44:53.478Z,2.33
2023-02-26T14:47:27.871Z,2.14
2023-02-26T14:50:01.081Z,2.43
2023-02-26T14:53:14.322Z,2.37
2023-02-26T14:56:03.550Z,2.17
2023-02-26T14:59:14.938Z,2.12
2023-02-26T15:01:53.053Z,2.31
2023-02-26T15:05:22.514Z,2.57
2023-02-26T15:08:24.419Z,2.51
2023-02-26T15:11:26.081Z,2.18
2023-02-26T15:14:21.503Z,2.21
2023-02-26T15:17:08.357Z,2.41
2023-02-26T15:20:07.900Z,2.42
2023-02-26T15:23:15.983Z,2.23
2023-02-26T15:25:51.660Z,1.98
2023-02-26T15:28:30.347Z,2.27
2023-02-26T15:31:04.909Z,2.20
2023-02-26T15:33:38.115Z,1.88
2023-02-26T15:36:15.841Z,1.85
2023-02-26T15:38:51.427Z,1.93
2023-02-26T15:41:26.586Z,1.93
2023-02-26T15:44:08.636Z,1.98
2023-02-26T15:46:45.199Z,2.22
2023-02-26T15:49:25.735Z,2.07
2023-02-26T15:52:00.972Z,2.25
2023-02-26T15:54:41.626Z,1.97
2023-02-26T15:57:16.206Z,1.84
2023-02-26T15:59:53.368Z,2.01
2023-02-26T16:02:30.688Z,1.91
2023-02-26T16:05:04.643Z,1.98
2023-02-26T16:07:37.764Z,1.84
2023-02-26T16:10:22.633Z,1.79
2023-02-26T16:12:56.725Z,1.68
2023-02-26T16:15:36.600Z,1.88
2023-02-26T16:18:15.778Z,1.73
2023-02-26T16:20:51.507Z,1.77
2023-02-26T16:23:38.713Z,1.87
2023-02-26T16:26:19.722Z,1.85
2023-02-26T16:28:59.778Z,1.89
2023-02-26T16:31:36.975Z,1.99
2023-02-26T16:34:29.267Z,1.70
2023-02-26T16:37:28.530Z,1.56
2023-02-26T16:40:19.977Z,1.61
2023-02-26T16:43:02.314Z,1.54
2023-02-26T16:45:50.810Z,1.55
2023-02-26T16:48:28.218Z,1.32
2023-02-26T16:51:06.609Z,1.38
2023-02-26T16:53:45.229Z,1.38
2023-02-26T16:56:22.062Z,1.38
2023-02-26T16:59:04.629Z,1.41
2023-02-26T17:01:41.507Z,1.41
2023-02-26T17:04:18.605Z,1.45
2023-02-26T17:06:52.756Z,1.42
2023-02-26T17:09:38.405Z,1.61
2023-02-26T17:12:19.630Z,1.61
2023-02-26T17:14:56.880Z,1.34
2023-02-26T17:17:30.146Z,1.37
2023-02-26T17:20:06.166Z,1.41
2023-02-26T17:22:39.996Z,1.30
2023-02-26T17:25:17.179Z,1.30
2023-02-26T17:27:50.827Z,1.53
2023-02-26T17:30:25.666Z,1.47
2023-02-26T17:32:59.076Z,1.50
2023-02-26T17:35:33.432Z,1.41
2023-02-26T17:38:06.442Z,1.26
2023-02-26T17:40:40.814Z,1.42
2023-02-26T17:43:13.827Z,1.36
2023-02-26T17:45:47.286Z,1.19
2023-02-26T17:48:20.626Z,1.50
2023-02-26T17:50:56.496Z,1.18
2023-02-26T17:53:33.289Z,1.34
2023-02-26T17:56:11.236Z,1.27
2023-02-26T17:58:45.519Z,1.17
2023-02-26T18:01:19.640Z,1.06
2023-02-26T18:03:54.521Z,1.11
2023-02-26T18:06:31.068Z,1.10
2023-02-26T18:09:07.934Z,1.11
2023-02-26T18:11:42.985Z,1.27
2023-02-26T18:14:16.025Z,0.87
2023-02-26T18:16:49.069Z,0.89
2023-02-26T18:19:22.060Z,0.87
2023-02-26T18:21:56.443Z,0.88
2023-02-26T18:24:29.626Z,0.92
2023-02-26T18:27:02.559Z,0.93
2023-02-26T18:29:35.530Z,1.04
2023-02-26T18:32:13.097Z,0.90
2023-02-26T18:34:46.210Z,0.76
2023-02-26T18:37:23.726Z,0.52
2023-02-26T18:39:56.863Z,0.56
2023-02-26T18:42:29.866Z,0.50
2023-02-26T18:45:02.859Z,0.57
2023-02-26T18:47:36.303Z,0.63
2023-02-26T18:50:13.974Z,0.50
2023-02-26T18:52:48.338Z,0.57
2023-02-26T18:55:21.379Z,0.42
2023-02-26T18:57:54.509Z,0.33
2023-02-26T19:00:28.584Z,0.53
2023-02-26T19:03:02.037Z,0.57
2023-02-26T19:05:35.084Z,0.56
2023-02-26T19:08:09.742Z,0.57
2023-02-26T19:10:42.751Z,0.40
2023-02-26T19:13:15.707Z,0.23
2023-02-26T19:15:49.632Z,0.37
2023-02-26T19:18:22.620Z,0.26
2023-02-26T19:20:55.664Z,0.33
2023-02-26T19:23:31.023Z,0.27
2023-02-26T19:26:05.293Z,0.33
2023-02-26T19:28:38.686Z,0.25
2023-02-26T19:31:11.721Z,0.24
2023-02-26T19:33:44.705Z,0.20
2023-02-26T19:36:21.783Z,0.22
2023-02-26T19:38:56.098Z,0.11
2023-02-26T19:41:29.233Z,0.12
2023-02-26T19:44:02.606Z,0.20
2023-02-26T19:46:36.003Z,0.32
2023-02-26T19:49:10.021Z,0.08
2023-02-26T19:51:43.202Z,-0.06
2023-02-26T19:54:17.796Z,0.02
2023-02-26T19:56:51.043Z,-0.10
2023-02-26T19:59:23.997Z,-0.01
2023-02-26T20:01:57.181Z,-0.05
2023-02-26T20:04:30.167Z,-0.02
2023-02-26T20:07:03.162Z,0.18
2023-02-26T20:09:37.777Z,0.11
2023-02-26T20:12:10.900Z,-0.12
2023-02-26T20:14:44.615Z,-0.07
2023-02-26T20:17:17.579Z,-0.10
2023-02-26T20:19:50.604Z,-0.09
2023-02-26T20:22:24.568Z,-0.28
2023-02-26T20:24:58.965Z,-0.20
2023-02-26T20:27:32.229Z,-0.13
2023-02-26T20:30:07.721Z,-0.27
2023-02-26T20:32:40.988Z,-0.32
2023-02-26T20:35:14.477Z,-0.25
2023-02-26T20:37:47.487Z,-0.30
2023-02-26T20:40:22.009Z,-0.38
2023-02-26T20:42:54.996Z,-0.26
2023-02-26T20:45:28.664Z,-0.41
2023-02-26T20:48:01.784Z,-0.57
2023-02-26T20:50:36.183Z,-0.61
2023-02-26T20:53:09.826Z,-0.48
2023-02-26T20:55:44.158Z,-0.39
2023-02-26T20:58:17.566Z,-0.26
2023-02-26T21:00:50.533Z,-0.28
2023-02-26T21:03:23.740Z,-0.39
2023-02-26T21:05:57.618Z,-0.28
2023-02-26T21:08:30.860Z,-0.37
2023-02-26T21:11:08.445Z,-0.65
2023-02-26T21:13:41.414Z,-0.48
2023-02-26T21:16:14.551Z,-0.61
2023-02-26T21:18:47.696Z,-0.61
2023-02-26T21:21:20.737Z,-0.39
2023-02-26T21:23:54.136Z,-0.56
2023-02-26T21:26:28.456Z,-0.60
2023-02-26T21:29:02.702Z,-0.57
2023-02-26T21:31:35.898Z,-0.56
2023-02-26T21:34:30.243Z,-0.51
2023-02-26T21:37:02.062Z,-0.33
2023-02-26T21:39:37.999Z,-0.46
2023-02-26T21:42:14.416Z,-0.60
2023-02-26T21:44:48.628Z,-0.64
2023-02-26T21:47:22.567Z,-0.73
2023-02-26T21:49:55.551Z,-0.65
2023-02-26T21:52:28.993Z,-0.53
2023-02-26T21:55:02.010Z,-0.59
2023-02-26T21:57:36.336Z,-0.69
2023-02-26T22:00:11.767Z,-0.64
2023-02-26T22:02:45.299Z,-0.51
2023-02-26T22:05:18.393Z,-0.53
2023-02-26T22:07:52.205Z,-0.62
2023-02-26T22:10:25.241Z,-0.70
2023-02-26T22:12:59.581Z,-0.69
2023-02-26T22:15:32.652Z,-0.55
2023-02-26T22:18:05.913Z,-0.64
2023-02-26T22:20:38.931Z,-0.64
2023-02-26T22:23:11.920Z,-0.50
2023-02-26T22:25:44.944Z,-0.85
2023-02-26T22:28:19.244Z,-0.88
2023-02-26T22:30:52.520Z,-0.70
2023-02-26T22:33:26.291Z,-0.61
2023-02-26T22:36:00.277Z,-0.84
2023-02-26T22:38:33.282Z,-1.00
2023-02-26T22:41:06.977Z,-0.95
2023-02-26T22:43:41.417Z,-0.89
2023-02-26T22:46:16.732Z,-0.78
2023-02-26T22:48:49.747Z,-0.94
2023-02-26T22:51:23.358Z,-0.96
2023-02-26T22:53:56.879Z,-0.79
2023-02-26T22:56:30.181Z,-0.69
2023-02-26T22:59:04.570Z,-0.67
2023-02-26T23:01:38.019Z,-0.84
2023-02-26T23:04:11.551Z,-0.81
2023-02-26T23:06:44.512Z,-1.01
2023-02-26T23:09:17.556Z,-0.87
2023-02-26T23:11:51.779Z,-0.96
2023-02-26T23:14:26.141Z,-1.09
2023-02-26T23:16:59.240Z,-1.15
2023-02-26T23:19:32.260Z,-1.05
2023-02-26T23:22:05.324Z,-1.20
2023-02-26T23:24:38.355Z,-1.21
2023-02-26T23:27:11.693Z,-1.13
2023-02-26T23:29:46.580Z,-1.15
2023-02-26T23:32:19.674Z,-1.23
2023-02-26T23:34:52.691Z,-1.01
2023-02-26T23:37:26.262Z,-0.92
2023-02-26T23:39:59.488Z,-1.06
2023-02-26T23:42:32.538Z,-1.05
2023-02-26T23:45:08.686Z,-1.18
2023-02-26T23:47:41.939Z,-1.05
2023-02-26T23:50:15.051Z,-1.08
2023-02-26T23:52:48.206Z,-1.15
2023-02-26T23:55:21.498Z,-1.29
2023-02-26T23:57:54.538Z,-1.24
